Time;durP1;ratioP1;P1;durP2;ratioP2;P2;SDS_P1;SDS_P2;PMS_P1;PMS_P2;Temp;Humidity;BMP_temperature;BMP_pressure;BME280_temperature;BME280_humidity;BME280_pressure;Samples;Min_cycle;Max_cycle;Signal;HPM_P1;HPM_P2
2022/08/28 00:00:55;;;;;;;5.28;3.13;;;;;;;21.14;95.53;98139.81;5016525;28;20044;-59
2022/08/28 00:03:21;;;;;;;5.97;3.20;;;;;;;21.10;96.29;98143.91;5032890;28;20059;-61
2022/08/28 00:05:46;;;;;;;5.57;3.30;;;;;;;21.13;95.84;98146.09;5040350;28;20021;-61
2022/08/28 00:08:13;;;;;;;5.38;2.90;;;;;;;21.05;95.86;98139.31;5034728;28;20044;-59
2022/08/28 00:10:40;;;;;;;4.90;2.90;;;;;;;20.95;95.67;98133.72;5029184;28;20029;-60
2022/08/28 00:13:07;;;;;;;5.90;3.20;;;;;;;20.87;96.54;98139.34;5031429;28;20456;-60
2022/08/28 00:15:36;;;;;;;7.95;3.67;;;;;;;20.90;98.08;98131.78;5019346;28;20112;-60
2022/08/28 00:18:02;;;;;;;7.00;3.42;;;;;;;20.98;96.90;98132.50;4989878;28;20044;-59
2022/08/28 00:20:28;;;;;;;5.57;3.50;;;;;;;20.99;97.72;98134.91;5039524;28;20158;-60
2022/08/28 00:22:54;;;;;;;6.55;3.65;;;;;;;20.96;97.93;98121.34;5034738;28;20037;-59
2022/08/28 00:25:23;;;;;;;7.82;3.60;;;;;;;20.98;97.71;98120.06;5072248;28;20521;-60
2022/08/28 00:27:52;;;;;;;5.60;3.80;;;;;;;21.03;97.81;98122.06;5035170;28;20040;-59
2022/08/28 00:30:20;;;;;;;6.00;3.40;;;;;;;20.97;97.35;98130.88;5047959;28;20093;-61
2022/08/28 00:32:46;;;;;;;5.60;3.40;;;;;;;20.91;98.85;98128.09;4985227;28;26080;-60
2022/08/28 00:35:11;;;;;;;6.18;3.50;;;;;;;20.95;98.76;98127.66;4972564;28;20056;-60
2022/08/28 00:37:38;;;;;;;7.38;3.42;;;;;;;20.45;98.34;98089.03;5040620;28;20040;-59
2022/08/28 00:40:06;;;;;;;5.95;3.42;;;;;;;20.54;98.07;98128.09;5021049;28;20094;-60
2022/08/28 00:42:35;;;;;;;5.47;3.30;;;;;;;20.67;97.66;98131.66;5041509;28;20033;-60
2022/08/28 00:45:01;;;;;;;;;;;;;;;20.74;97.55;98135.81;5038375;28;20086;-60
2022/08/28 00:47:27;;;;;;;7.05;3.83;;;;;;;20.74;98.52;98135.03;5058811;28;20367;-60
2022/08/28 00:49:54;;;;;;;6.53;3.63;;;;;;;20.84;97.95;98145.06;4959184;28;20713;-61
2022/08/28 00:52:21;;;;;;;5.75;3.63;;;;;;;20.87;97.33;98137.50;5009619;28;20140;-60
2022/08/28 00:54:51;;;;;;;7.45;4.13;;;;;;;20.89;97.55;98137.28;5037990;28;20035;-59
2022/08/28 00:57:20;;;;;;;7.32;3.70;;;;;;;20.92;96.32;98128.91;5037245;28;20476;-58
2022/08/28 00:59:46;;;;;;;6.25;3.88;;;;;;;20.96;96.57;98130.06;5039127;28;20045;-60
2022/08/28 01:02:11;;;;;;;6.85;4.07;;;;;;;20.96;97.00;98119.50;5052438;28;20055;-60
2022/08/28 01:04:37;;;;;;;6.38;3.80;;;;;;;20.93;98.34;98119.94;5039953;28;20052;-59
2022/08/28 01:07:06;;;;;;;6.93;3.80;;;;;;;20.89;98.12;98122.22;5038349;28;20601;-61
2022/08/28 01:09:33;;;;;;;5.80;3.60;;;;;;;20.86;97.60;98122.69;5017669;28;20475;-59
2022/08/28 01:12:04;;;;;;;7.78;3.90;;;;;;;20.89;97.42;98124.88;5040944;28;20052;-59
2022/08/28 01:14:31;;;;;;;6.57;4.10;;;;;;;20.88;97.28;98128.56;5041982;28;20403;-60
2022/08/28 01:16:56;;;;;;;5.75;3.70;;;;;;;20.79;98.21;98127.25;5032398;28;20103;-60
2022/08/28 01:19:55;;;;;;;6.20;3.50;;;;;;;20.77;100.00;98124.00;5017694;28;20507;-59
2022/08/28 01:22:36;;;;;;;6.35;3.83;;;;;;;20.81;100.00;98121.72;5041771;28;20041;-59
2022/08/28 01:25:13;;;;;;;6.28;4.28;;;;;;;20.83;100.00;98127.59;5032824;28;20095;-59
2022/08/28 01:27:43;;;;;;;7.18;3.70;;;;;;;20.85;98.91;98126.34;5067795;28;20056;-60
2022/08/28 01:30:11;;;;;;;6.28;4.00;;;;;;;20.88;97.39;98120.63;5016620;28;20029;-59
2022/08/28 01:32:39;;;;;;;6.68;4.60;;;;;;;20.82;99.07;98113.56;5038362;28;20025;-60
2022/08/28 01:35:08;;;;;;;8.93;3.97;;;;;;;20.31;100.00;98075.16;5034660;28;20032;-60
2022/08/28 01:37:35;;;;;;;6.18;3.95;;;;;;;20.47;100.00;98087.75;5032962;28;20605;-60
2022/08/28 01:40:01;;;;;;;6.38;4.15;;;;;;;20.39;100.00;98076.69;5032759;28;20121;-60
2022/08/28 01:42:27;;;;;;;6.88;4.18;;;;;;;20.54;100.00;98112.25;5023624;28;20476;-59
2022/08/28 01:44:53;;;;;;;6.40;3.80;;;;;;;20.54;100.00;98122.81;5020239;28;20047;-59
2022/08/28 01:47:20;;;;;;;6.05;4.07;;;;;;;20.42;100.00;98115.84;5028547;28;20021;-59
2022/08/28 01:49:45;;;;;;;6.15;4.00;;;;;;;20.34;100.00;98120.41;4939914;28;20157;-59
2022/08/28 01:52:11;;;;;;;8.07;4.30;;;;;;;20.43;100.00;98114.84;5038628;28;20100;-59
2022/08/28 01:54:36;;;;;;;5.93;4.30;;;;;;;20.35;100.00;98118.56;5040768;28;20033;-59
2022/08/28 01:57:02;;;;;;;6.10;4.45;;;;;;;20.34;100.00;98119.59;5033127;28;20032;-60
2022/08/28 01:59:28;;;;;;;6.03;4.43;;;;;;;20.31;100.00;98120.03;5031024;28;20041;-58
2022/08/28 02:01:54;;;;;;;5.97;4.15;;;;;;;20.35;100.00;98103.53;5021240;28;20708;-59
2022/08/28 02:04:19;;;;;;;7.72;4.72;;;;;;;20.35;100.00;98108.00;5042376;28;20151;-58
2022/08/28 02:06:45;;;;;;;6.10;4.32;;;;;;;20.36;100.00;98112.25;5012935;28;20085;-58
2022/08/28 02:09:10;;;;;;;6.07;4.40;;;;;;;20.31;100.00;98114.75;5036408;28;20026;-59
2022/08/28 02:11:38;;;;;;;7.00;4.28;;;;;;;20.33;100.00;98108.25;5040512;28;20614;-58
2022/08/28 02:14:03;;;;;;;6.47;4.35;;;;;;;20.29;100.00;98107.03;5032662;28;20104;-58
2022/08/28 02:16:29;;;;;;;7.28;4.70;;;;;;;20.32;100.00;98116.38;5014701;28;20367;-61
2022/08/28 02:18:54;;;;;;;5.93;4.13;;;;;;;20.28;100.00;98117.81;5037608;28;20075;-58
2022/08/28 02:21:19;;;;;;;6.95;4.20;;;;;;;20.29;100.00;98128.16;5016306;28;20148;-60
2022/08/28 02:23:45;;;;;;;7.63;4.35;;;;;;;20.28;100.00;98125.75;5037982;28;20029;-59
2022/08/28 02:26:11;;;;;;;6.32;3.92;;;;;;;20.32;100.00;98130.38;5031337;28;20041;-58
2022/08/28 02:28:37;;;;;;;6.03;3.88;;;;;;;20.09;100.00;98088.78;4974799;28;20633;-60
2022/08/28 02:31:05;;;;;;;6.22;4.50;;;;;;;20.35;100.00;98129.94;5036429;28;20608;-59
2022/08/28 02:33:30;;;;;;;6.38;4.28;;;;;;;20.40;100.00;98134.56;5035899;28;20028;-60
2022/08/28 02:35:56;;;;;;;6.93;3.80;;;;;;;20.24;99.29;98106.88;5031665;28;20086;-60
2022/08/28 02:38:21;;;;;;;5.88;3.63;;;;;;;20.33;100.00;98134.63;5023533;28;20029;-58
2022/08/28 02:40:47;;;;;;;5.85;3.70;;;;;;;20.27;100.00;98110.94;5020296;28;20029;-59
2022/08/28 02:43:12;;;;;;;7.35;3.95;;;;;;;20.48;100.00;98131.63;5019042;28;20637;-59
2022/08/28 02:45:37;;;;;;;5.18;3.55;;;;;;;20.54;98.23;98135.22;5033902;28;20025;-60
2022/08/28 02:48:03;;;;;;;5.15;3.53;;;;;;;20.53;99.05;98133.59;4974291;28;20036;-59
2022/08/28 02:50:29;;;;;;;6.35;3.53;;;;;;;20.39;98.32;98130.31;5029850;28;20033;-59
2022/08/28 02:52:55;;;;;;;5.63;3.92;;;;;;;20.58;98.88;98146.97;5034740;28;20056;-60
2022/08/28 02:55:21;;;;;;;6.63;3.85;;;;;;;20.59;99.48;98142.47;5034240;28;20398;-59
2022/08/28 02:57:47;;;;;;;6.80;4.07;;;;;;;20.70;98.75;98129.38;5039004;28;20040;-60
2022/08/28 03:00:16;;;;;;;5.30;3.63;;;;;;;20.38;98.83;98131.31;5035149;28;20029;-58
2022/08/28 03:02:44;;;;;;;5.10;3.38;;;;;;;20.46;98.56;98127.59;5012370;28;20497;-60
2022/08/28 03:05:11;;;;;;;5.57;3.80;;;;;;;20.52;98.18;98132.00;5039027;28;20021;-60
2022/08/28 03:07:37;;;;;;;8.85;3.60;;;;;;;20.55;97.87;98132.38;4956648;28;22771;-60
2022/08/28 03:10:04;;;;;;;6.85;3.42;;;;;;;20.51;97.35;98130.38;5031395;28;20559;-60
2022/08/28 03:12:29;;;;;;;5.10;3.25;;;;;;;20.20;98.63;98097.00;5065815;28;20171;-58
2022/08/28 03:14:55;;;;;;;5.95;3.30;;;;;;;20.13;99.05;98089.97;5035083;28;20124;-58
2022/08/28 03:17:21;;;;;;;5.63;3.55;;;;;;;20.28;98.81;98117.81;5039747;28;20041;-58
2022/08/28 03:19:48;;;;;;;5.68;3.22;;;;;;;20.35;99.22;98122.03;5035920;28;20029;-59
2022/08/28 03:22:16;;;;;;;5.65;3.50;;;;;;;20.25;99.28;98082.13;5021026;28;20140;-59
2022/08/28 03:24:41;;;;;;;5.43;3.30;;;;;;;20.53;99.51;98128.31;5024734;28;20029;-60
2022/08/28 03:27:07;;;;;;;7.18;3.50;;;;;;;20.55;98.87;98124.44;5010420;28;20067;-60
2022/08/28 03:29:33;;;;;;;5.20;3.30;;;;;;;20.58;98.22;98117.09;5034898;28;20104;-58
2022/08/28 03:31:59;;;;;;;5.13;3.28;;;;;;;20.59;97.63;98118.69;5045577;28;20048;-59
2022/08/28 03:34:24;;;;;;;5.15;3.38;;;;;;;20.61;97.88;98116.66;5034326;28;20616;-59
2022/08/28 03:36:50;;;;;;;6.60;3.55;;;;;;;20.60;98.06;98131.69;5020271;28;20025;-59
2022/08/28 03:39:15;;;;;;;7.40;3.72;;;;;;;20.51;98.21;98128.53;5038776;28;20056;-59
2022/08/28 03:41:40;;;;;;;6.68;3.50;;;;;;;20.52;98.62;98127.53;5031839;28;20090;-58
2022/08/28 03:44:06;;;;;;;5.10;3.30;;;;;;;20.55;98.46;98123.63;5030209;28;20483;-60
2022/08/28 03:46:32;;;;;;;4.95;3.10;;;;;;;20.26;99.09;98102.22;5016354;28;20810;-61
2022/08/28 03:48:59;;;;;;;5.28;3.25;;;;;;;20.36;98.74;98139.47;5035684;28;20328;-60
2022/08/28 03:51:28;;;;;;;5.60;3.33;;;;;;;20.39;97.36;98134.75;5047759;28;20083;-58
2022/08/28 03:53:54;;;;;;;5.43;3.33;;;;;;;20.42;96.47;98137.78;5037772;28;20028;-60
2022/08/28 03:56:22;;;;;;;7.47;3.55;;;;;;;20.50;97.33;98136.69;5037611;28;20033;-58
2022/08/28 03:58:50;;;;;;;5.95;3.80;;;;;;;20.51;97.16;98136.44;5021166;28;20319;-59
2022/08/28 04:01:16;;;;;;;6.05;3.42;;;;;;;20.51;97.08;98136.44;5024336;28;20031;-59
2022/08/28 04:03:42;;;;;;;5.50;3.03;;;;;;;20.53;97.64;98133.59;5016308;28;20037;-59
2022/08/28 04:06:07;;;;;;;5.32;3.50;;;;;;;20.53;98.04;98139.72;5021533;28;20596;-58
2022/08/28 04:08:33;;;;;;;5.47;3.20;;;;;;;20.46;98.75;98133.69;5034658;28;20029;-58
2022/08/28 04:10:59;;;;;;;4.80;2.92;;;;;;;20.49;98.08;98143.78;5028816;28;20033;-59
2022/08/28 04:13:25;;;;;;;5.70;3.17;;;;;;;20.40;96.15;98144.31;5031787;28;20036;-59
2022/08/28 04:15:59;;;;;;;5.43;3.25;;;;;;;20.43;96.29;98139.41;5034062;28;20020;-58
2022/08/28 04:18:25;;;;;;;5.88;3.20;;;;;;;20.20;96.13;98105.72;5037883;28;20175;-59
2022/08/28 04:21:04;;;;;;;6.50;3.58;;;;;;;20.30;97.07;98132.44;5038231;28;20048;-60
2022/08/28 04:23:30;;;;;;;5.63;3.20;;;;;;;20.26;97.26;98143.63;5030770;28;20068;-59
2022/08/28 04:25:56;;;;;;;5.28;3.22;;;;;;;20.26;96.76;98135.72;5030335;28;20131;-59
2022/08/28 04:28:22;;;;;;;5.20;3.40;;;;;;;20.34;96.47;98138.88;5023180;28;20470;-59
2022/08/28 04:30:55;;;;;;;5.75;3.30;;;;;;;20.19;97.50;98141.06;5039240;28;20033;-59
2022/08/28 04:33:25;;;;;;;5.90;3.78;;;;;;;20.11;98.38;98141.34;5033963;28;20025;-58
2022/08/28 04:35:51;;;;;;;6.05;3.50;;;;;;;20.08;98.57;98149.69;5020662;28;20036;-59
2022/08/28 04:38:17;;;;;;;6.25;3.35;;;;;;;19.87;99.06;98111.31;5026689;28;20333;-59
2022/08/28 04:40:42;;;;;;;6.07;4.00;;;;;;;19.87;99.20;98113.97;5022311;28;20040;-59
2022/08/28 04:43:08;;;;;;;5.68;3.20;;;;;;;19.90;98.53;98119.63;5036520;28;20036;-59
2022/08/28 04:45:42;;;;;;;5.00;3.20;;;;;;;19.89;99.55;98138.28;4999726;28;20051;-60
2022/08/28 04:48:08;;;;;;;6.15;3.55;;;;;;;19.88;99.02;98150.69;5035909;28;20132;-58
2022/08/28 04:50:34;;;;;;;5.70;3.42;;;;;;;19.85;99.67;98147.66;5023744;28;20544;-58
2022/08/28 04:53:00;;;;;;;5.40;3.40;;;;;;;19.56;99.31;98105.06;5021714;28;20025;-59
2022/08/28 04:55:26;;;;;;;5.82;3.72;;;;;;;19.78;99.10;98153.78;5031441;28;20048;-59
2022/08/28 04:57:51;;;;;;;5.30;3.30;;;;;;;19.77;98.13;98144.28;5033404;28;20039;-61
2022/08/28 05:00:17;;;;;;;5.95;3.53;;;;;;;19.80;97.70;98143.03;5031945;28;20033;-58
2022/08/28 05:02:43;;;;;;;5.28;3.30;;;;;;;19.73;97.39;98140.47;4972958;28;21235;-62
2022/08/28 05:05:08;;;;;;;5.70;3.28;;;;;;;19.79;95.92;98141.44;4992949;28;20025;-60
2022/08/28 05:07:34;;;;;;;5.32;3.15;;;;;;;19.80;95.38;98143.03;5026001;28;20033;-59
2022/08/28 05:09:59;;;;;;;5.50;3.20;;;;;;;19.81;94.62;98146.50;5020203;28;20542;-58
2022/08/28 05:12:25;;;;;;;5.50;3.20;;;;;;;19.65;94.73;98142.53;5036902;28;20039;-59
2022/08/28 05:14:51;;;;;;;6.45;3.33;;;;;;;19.71;94.88;98145.13;5033297;28;20198;-60
2022/08/28 05:17:16;;;;;;;5.40;3.10;;;;;;;19.74;94.44;98147.34;5018309;28;20296;-59
2022/08/28 05:19:42;;;;;;;5.10;3.00;;;;;;;19.66;93.72;98147.59;5023737;28;21057;-62
2022/08/28 05:22:08;;;;;;;4.88;3.00;;;;;;;19.69;94.52;98154.25;5040798;28;20024;-58
2022/08/28 05:24:36;;;;;;;4.65;2.92;;;;;;;19.70;94.02;98150.59;5011585;28;20560;-59
2022/08/28 05:27:02;;;;;;;5.32;3.20;;;;;;;19.57;94.92;98135.69;5023978;28;20028;-59
2022/08/28 05:29:27;;;;;;;4.85;3.10;;;;;;;19.73;93.89;98148.38;5032953;28;20084;-60
2022/08/28 05:31:52;;;;;;;5.20;3.33;;;;;;;19.65;94.42;98153.06;5063520;28;20076;-59
2022/08/28 05:34:19;;;;;;;5.45;3.00;;;;;;;19.66;94.32;98155.50;5029296;28;20037;-59
2022/08/28 05:36:45;;;;;;;5.72;3.03;;;;;;;19.69;94.11;98151.63;5022696;28;20068;-59
2022/08/28 05:39:11;;;;;;;5.45;3.15;;;;;;;19.65;95.26;98153.06;5038633;28;20029;-60
2022/08/28 05:41:39;;;;;;;4.88;2.95;;;;;;;19.74;93.97;98154.44;5016703;28;20020;-59
2022/08/28 05:44:07;;;;;;;5.68;2.95;;;;;;;19.72;93.44;98159.91;5018393;28;20032;-60
2022/08/28 05:46:33;;;;;;;5.20;2.95;;;;;;;19.74;93.32;98160.53;5032669;28;20108;-58
2022/08/28 05:48:59;;;;;;;6.15;2.65;;;;;;;19.76;92.51;98155.03;5032572;28;20035;-59
2022/08/28 05:51:25;;;;;;;4.63;2.72;;;;;;;19.78;91.95;98164.34;5027519;28;20487;-59
2022/08/28 05:53:52;;;;;;;5.40;3.00;;;;;;;19.83;92.07;98165.56;5027212;28;20813;-59
2022/08/28 05:56:23;;;;;;;4.85;2.70;;;;;;;19.85;91.70;98176.69;5024079;28;20521;-59
2022/08/28 05:58:49;;;;;;;6.82;2.78;;;;;;;19.77;91.79;98173.28;5031061;28;20025;-63
2022/08/28 06:01:18;;;;;;;4.80;2.80;;;;;;;19.87;91.69;98175.44;4996346;28;20036;-58
2022/08/28 06:03:50;;;;;;;6.35;3.03;;;;;;;19.84;91.07;98167.97;5028637;28;20039;-60
2022/08/28 06:06:15;;;;;;;5.78;2.67;;;;;;;19.86;91.47;98170.38;5058207;28;20036;-58
2022/08/28 06:08:41;;;;;;;5.95;2.67;;;;;;;19.85;91.21;98163.50;5055568;28;20033;-63
2022/08/28 06:11:07;;;;;;;5.30;3.08;;;;;;;19.82;91.43;98171.84;5026777;28;20033;-59
2022/08/28 06:13:34;;;;;;;5.28;2.92;;;;;;;19.82;91.71;98175.28;5042216;28;20033;-59
2022/08/28 06:15:59;;;;;;;5.93;2.92;;;;;;;19.84;92.53;98180.34;5058255;28;20107;-59
2022/08/28 06:18:25;;;;;;;5.20;3.15;;;;;;;19.55;92.00;98132.47;5059170;28;20029;-64
2022/08/28 06:20:51;;;;;;;5.13;2.80;;;;;;;19.86;91.70;98178.28;4916163;28;20067;-59
2022/08/28 06:23:18;;;;;;;4.80;3.03;;;;;;;19.88;90.84;98168.34;5060823;28;20480;-58
2022/08/28 06:25:47;;;;;;;4.30;2.70;;;;;;;19.77;90.97;98159.31;5027804;28;20033;-58
2022/08/28 06:28:16;;;;;;;5.25;2.70;;;;;;;19.90;90.18;98179.50;5027469;28;20804;-58
2022/08/28 06:30:42;;;;;;;6.13;2.80;;;;;;;19.92;90.51;98180.88;5009071;28;20036;-62
2022/08/28 06:33:08;;;;;;;5.25;2.80;;;;;;;19.89;90.83;98176.03;5026652;28;20040;-60
2022/08/28 06:35:39;;;;;;;5.95;3.28;;;;;;;19.86;90.92;98178.28;5026997;28;20033;-60
2022/08/28 06:38:05;;;;;;;5.20;2.85;;;;;;;19.87;91.31;98183.34;5015344;28;20035;-59
2022/08/28 06:40:30;;;;;;;5.32;2.85;;;;;;;19.96;90.24;98181.25;4960273;28;20041;-59
2022/08/28 06:42:55;;;;;;;4.88;3.03;;;;;;;19.69;90.10;98151.63;5028672;28;20408;-60
2022/08/28 06:45:21;;;;;;;4.38;2.63;;;;;;;19.96;90.33;98181.25;5030156;28;20076;-59
2022/08/28 06:47:46;;;;;;;5.90;2.83;;;;;;;20.03;90.29;98189.94;5031517;28;20028;-61
2022/08/28 06:50:12;;;;;;;4.63;2.67;;;;;;;19.89;89.76;98164.69;5017574;28;20120;-59
2022/08/28 06:52:37;;;;;;;5.82;2.72;;;;;;;20.09;89.74;98194.34;5028898;28;20195;-60
2022/08/28 06:55:03;;;;;;;5.22;2.80;;;;;;;20.12;88.81;98193.13;5020530;28;20025;-59
2022/08/28 06:57:28;;;;;;;5.00;3.05;;;;;;;20.09;88.08;98194.34;5061980;28;20366;-60
2022/08/28 06:59:55;;;;;;;5.57;3.00;;;;;;;20.16;87.99;98194.28;5013830;28;20833;-59
2022/08/28 07:02:20;;;;;;;4.50;2.80;;;;;;;20.24;86.89;98193.19;5014508;28;20034;-59
2022/08/28 07:04:50;;;;;;;5.53;2.75;;;;;;;20.27;86.06;98198.84;5032407;28;20082;-59
2022/08/28 07:07:16;;;;;;;5.00;2.90;;;;;;;20.28;86.39;98199.66;5033502;28;20039;-59
2022/08/28 07:09:41;;;;;;;4.90;2.78;;;;;;;20.24;86.95;98187.91;5029598;28;20483;-59
2022/08/28 07:12:07;;;;;;;5.45;2.70;;;;;;;20.05;87.28;98165.97;5034440;28;20028;-59
2022/08/28 07:14:33;;;;;;;4.68;2.80;;;;;;;20.22;87.66;98187.34;5024727;28;20033;-60
2022/08/28 07:16:59;;;;;;;4.93;3.00;;;;;;;20.26;nan;98191.16;5030117;28;20083;-60
2022/08/28 07:19:24;;;;;;;5.03;2.90;;;;;;;20.22;87.49;98189.97;4955472;28;20029;-59
2022/08/28 07:21:50;;;;;;;4.80;3.03;;;;;;;19.97;87.67;98152.03;5013739;28;20017;-58
2022/08/28 07:24:16;;;;;;;4.57;2.85;;;;;;;19.96;87.71;98155.69;5016273;28;20036;-61
2022/08/28 07:26:43;;;;;;;5.45;3.20;;;;;;;20.00;87.52;98160.53;5027532;28;20049;-59
2022/08/28 07:29:09;;;;;;;5.75;2.90;;;;;;;20.21;87.30;98188.38;5033893;28;20029;-59
2022/08/28 07:31:35;;;;;;;6.75;3.28;;;;;;;20.24;87.09;98182.63;5031275;28;20033;-59
2022/08/28 07:34:00;;;;;;;4.60;2.75;;;;;;;20.14;86.61;98183.94;5016804;28;20431;-59
2022/08/28 07:36:27;;;;;;;5.28;3.00;;;;;;;20.32;86.34;98185.81;5030481;28;20806;-59
2022/08/28 07:38:57;;;;;;;5.70;2.95;;;;;;;20.29;86.69;98190.72;5005441;28;20490;-58
2022/08/28 07:41:28;;;;;;;4.90;2.78;;;;;;;20.30;86.08;98179.94;5022553;28;20033;-60
2022/08/28 07:46:38;;;;;;;5.63;3.00;;;;;;;20.38;85.94;98197.34;5029163;28;20035;-60
2022/08/28 07:49:05;;;;;;;5.60;3.20;;;;;;;20.49;85.54;98196.59;5024178;28;20484;-59
2022/08/28 07:51:31;;;;;;;5.00;3.20;;;;;;;20.57;86.65;98200.00;5025255;28;20024;-60
2022/08/28 07:53:56;;;;;;;4.88;2.92;;;;;;;20.66;87.78;98198.69;5016456;28;20025;-59
2022/08/28 07:56:23;;;;;;;4.70;2.80;;;;;;;20.71;87.64;98204.94;5027710;28;20039;-60
2022/08/28 07:58:49;;;;;;;5.32;2.90;;;;;;;20.61;88.72;98174.78;4955351;28;20454;-59
2022/08/28 08:01:16;;;;;;;4.82;3.08;;;;;;;20.84;87.46;98209.25;4979081;28;20026;-59
2022/08/28 08:03:42;;;;;;;5.00;3.00;;;;;;;20.63;84.63;98178.03;5025385;28;20124;-59
2022/08/28 08:06:09;;;;;;;4.90;3.17;;;;;;;20.95;86.39;98206.91;5020434;28;20534;-59
2022/08/28 08:08:36;;;;;;;5.30;3.22;;;;;;;20.80;85.13;98178.25;5024941;28;20029;-58
2022/08/28 08:11:06;;;;;;;5.00;2.70;;;;;;;21.01;83.47;98213.94;5031494;28;20123;-61
2022/08/28 08:13:32;;;;;;;5.57;3.13;;;;;;;21.06;83.43;98220.19;5060168;28;20033;-59
2022/08/28 08:16:09;;;;;;;5.82;3.00;;;;;;;21.04;84.90;98216.97;4954822;28;20037;-58
2022/08/28 08:18:36;;;;;;;6.68;3.25;;;;;;;21.16;85.34;98224.97;5025828;28;20099;-59
2022/08/28 08:21:04;;;;;;;4.82;3.08;;;;;;;21.13;85.87;98212.97;5017405;28;20039;-58
2022/08/28 08:23:30;;;;;;;5.10;3.03;;;;;;;21.10;84.42;98223.19;5027586;28;20116;-58
2022/08/28 08:25:57;;;;;;;5.00;3.00;;;;;;;21.13;84.26;98226.19;5036222;28;20086;-60
2022/08/28 08:28:23;;;;;;;5.07;3.03;;;;;;;21.08;82.32;98225.25;5024062;28;20026;-59
2022/08/28 08:30:49;;;;;;;5.18;3.13;;;;;;;21.18;81.28;98219.47;5037180;28;20044;-60
2022/08/28 08:33:14;;;;;;;5.00;3.03;;;;;;;21.26;80.78;98238.44;5021304;28;20037;-59
2022/08/28 08:35:40;;;;;;;5.22;3.10;;;;;;;22.38;75.95;98223.81;5034259;28;20116;-58
2022/08/28 08:38:06;;;;;;;5.38;2.60;;;;;;;23.82;69.49;98228.53;5009349;28;20021;-58
2022/08/28 08:40:32;;;;;;;5.38;2.80;;;;;;;24.43;65.18;98194.94;5012596;28;20029;-58
2022/08/28 08:43:00;;;;;;;4.70;2.85;;;;;;;25.47;60.41;98219.91;5017397;28;21605;-59
2022/08/28 08:45:28;;;;;;;5.13;2.50;;;;;;;26.11;58.26;98225.53;5023066;28;20078;-58
2022/08/28 08:47:54;;;;;;;5.20;2.85;;;;;;;26.33;57.08;98228.09;5017878;28;20032;-58
2022/08/28 08:50:33;;;;;;;4.85;2.50;;;;;;;26.20;56.82;98194.69;5022216;28;20495;-59
2022/08/28 08:53:19;;;;;;;5.75;2.42;;;;;;;25.89;58.01;98219.22;5029375;28;20034;-60
2022/08/28 08:55:46;;;;;;;6.47;2.63;;;;;;;25.02;61.38;98223.63;5034247;28;20033;-59
2022/08/28 08:58:22;;;;;;;6.85;3.50;;;;;;;24.08;62.26;98224.47;5034908;28;20044;-59
2022/08/28 09:00:57;;;;;;;4.68;2.38;;;;;;;23.65;66.58;98225.81;5036921;28;20041;-58
2022/08/28 09:03:25;;;;;;;4.70;2.63;;;;;;;23.43;66.73;98215.88;5038022;28;20033;-58
2022/08/28 09:05:57;;;;;;;6.57;2.88;;;;;;;22.98;66.59;98200.69;5035327;28;20106;-59
2022/08/28 09:08:39;;;;;;;5.38;2.70;;;;;;;23.17;66.19;98228.69;5038492;28;20029;-58
2022/08/28 09:11:23;;;;;;;5.20;2.30;;;;;;;23.25;67.47;98222.19;5034715;28;20064;-59
2022/08/28 09:14:16;;;;;;;4.68;2.55;;;;;;;23.33;66.41;98218.38;4993773;28;20041;-59
2022/08/28 09:16:43;;;;;;;5.30;2.83;;;;;;;23.32;66.24;98222.06;5027110;28;20052;-58
2022/08/28 09:19:12;;;;;;;6.25;2.83;;;;;;;23.15;68.86;98220.16;5019955;28;20048;-59
2022/08/28 09:21:42;;;;;;;6.85;2.50;;;;;;;23.01;68.16;98182.47;5033376;28;20037;-59
2022/08/28 09:24:24;;;;;;;5.28;2.75;;;;;;;23.12;68.26;98207.34;5035153;28;20104;-59
2022/08/28 09:27:00;;;;;;;4.47;2.40;;;;;;;23.26;68.70;98210.56;5038718;28;20043;-58
2022/08/28 09:29:35;;;;;;;6.75;2.60;;;;;;;23.31;68.10;98223.09;5031526;28;20075;-58
2022/08/28 09:32:25;;;;;;;4.90;2.83;;;;;;;23.36;68.38;98208.06;5030810;28;20111;-59
2022/08/28 09:35:02;;;;;;;5.80;3.00;;;;;;;23.46;67.78;98214.63;5022516;28;20040;-58
2022/08/28 09:37:31;;;;;;;4.75;2.72;;;;;;;23.47;68.65;98217.00;5031135;28;20029;-59
2022/08/28 09:40:18;;;;;;;4.55;2.92;;;;;;;23.50;67.92;98213.91;5016478;28;20055;-59
2022/08/28 09:46:09;;;;;;;4.28;2.53;;;;;;;23.36;68.58;98194.00;5029733;28;20071;-62
2022/08/28 09:48:42;;;;;;;5.10;2.80;;;;;;;23.61;69.07;98214.88;5025967;28;20041;-59
2022/08/28 09:51:28;;;;;;;4.32;2.45;;;;;;;23.85;68.64;98212.94;5031046;28;20140;-60
2022/08/28 09:53:53;;;;;;;6.85;2.70;;;;;;;23.90;67.61;98214.88;5013857;28;20083;-60
2022/08/28 09:56:32;;;;;;;4.82;3.00;;;;;;;23.93;69.36;98211.72;5031559;28;21536;-60
2022/08/28 09:59:06;;;;;;;5.40;2.65;;;;;;;24.20;67.51;98211.06;5055658;28;20041;-60
2022/08/28 10:01:40;;;;;;;5.10;2.92;;;;;;;24.27;65.62;98209.84;5031766;28;20021;-59
2022/08/28 10:04:28;;;;;;;5.75;2.85;;;;;;;24.50;63.96;98210.72;5032593;28;20037;-59
2022/08/28 10:07:15;;;;;;;5.70;3.22;;;;;;;24.87;63.15;98204.84;5029475;28;20025;-59
2022/08/28 10:10:12;;;;;;;9.00;4.85;;;;;;;25.00;59.72;98193.03;5031221;28;20640;-59
2022/08/28 10:12:59;;;;;;;7.10;3.50;;;;;;;25.20;60.26;98200.44;5016015;28;20044;-58
2022/08/28 10:15:24;;;;;;;6.93;4.50;;;;;;;25.02;59.00;98166.97;5032532;28;20428;-61
2022/08/28 10:18:39;;;;;;;10.52;6.43;;;;;;;25.31;58.74;98192.31;5029960;28;20036;-58
2022/08/28 10:21:11;;;;;;;7.38;3.40;;;;;;;25.42;56.99;98169.28;5005378;28;20090;-61
2022/08/28 10:24:08;;;;;;;6.47;3.50;;;;;;;25.77;54.97;98172.50;5011582;28;20525;-59
2022/08/28 10:26:45;;;;;;;10.10;6.28;;;;;;;25.62;55.84;98181.97;5021372;28;20056;-59
2022/08/28 10:29:32;;;;;;;7.00;3.70;;;;;;;25.46;57.75;98191.69;5033535;28;20552;-59
2022/08/28 10:32:03;;;;;;;9.80;4.50;;;;;;;25.18;57.00;98131.50;5026384;28;20029;-60
2022/08/28 10:34:58;;;;;;;8.70;4.20;;;;;;;25.40;56.47;98152.75;5036165;28;20152;-59
2022/08/28 10:37:51;;;;;;;6.57;3.40;;;;;;;25.31;57.19;98154.28;5026016;28;20049;-58
2022/08/28 10:40:39;;;;;;;6.13;3.78;;;;;;;25.41;58.62;98180.16;5028562;28;20491;-59
2022/08/28 10:43:14;;;;;;;7.28;3.70;;;;;;;25.35;58.35;98152.72;5028221;28;20025;-60
2022/08/28 10:45:40;;;;;;;5.40;3.67;;;;;;;25.65;58.24;98184.13;5029094;28;20532;-59
2022/08/28 10:48:23;;;;;;;6.18;3.67;;;;;;;25.79;56.31;98176.53;5033581;28;20029;-58
2022/08/28 10:50:55;;;;;;;5.57;3.13;;;;;;;26.00;55.14;98176.72;5031361;28;20135;-60
2022/08/28 10:53:27;;;;;;;5.78;3.50;;;;;;;25.93;55.61;98171.59;4939357;28;20116;-58
2022/08/28 10:55:58;;;;;;;5.43;3.55;;;;;;;25.98;55.36;98168.97;5032806;28;20563;-61
2022/08/28 10:58:26;;;;;;;5.18;3.28;;;;;;;25.93;54.87;98142.31;5024842;28;20091;-59
2022/08/28 11:01:06;;;;;;;6.22;3.70;;;;;;;26.18;56.06;98167.50;5036541;28;20086;-59
2022/08/28 11:03:42;;;;;;;6.22;3.33;;;;;;;26.11;56.03;98140.28;5033645;28;20029;-59
2022/08/28 11:06:14;;;;;;;6.47;3.45;;;;;;;26.16;55.19;98140.31;5035157;28;20055;-59
2022/08/28 11:08:40;;;;;;;5.20;3.17;;;;;;;26.26;54.30;98159.03;5023178;28;20021;-59
2022/08/28 11:11:12;;;;;;;4.88;3.10;;;;;;;26.42;54.19;98165.25;5014744;28;20041;-58
2022/08/28 11:13:39;;;;;;;4.60;3.00;;;;;;;26.51;53.99;98163.69;5009421;28;20033;-59
2022/08/28 11:16:30;;;;;;;5.97;3.30;;;;;;;26.65;51.83;98164.03;5024280;28;20033;-59
2022/08/28 11:19:13;;;;;;;5.45;3.13;;;;;;;26.66;53.53;98165.66;5031131;28;20045;-59
2022/08/28 11:21:52;;;;;;;7.95;3.20;;;;;;;26.68;53.80;98158.19;5029070;28;20033;-59
2022/08/28 11:24:32;;;;;;;5.72;3.28;;;;;;;26.80;53.40;98161.44;5026614;28;20790;-58
2022/08/28 11:27:31;;;;;;;5.50;3.22;;;;;;;26.81;53.98;98154.22;5028339;28;20099;-58
2022/08/28 11:30:02;;;;;;;5.03;3.20;;;;;;;26.91;52.49;98148.16;5008318;28;20880;-59
2022/08/28 11:32:31;;;;;;;5.25;3.08;;;;;;;26.91;52.45;98145.47;5018229;28;20040;-58
2022/08/28 11:34:59;;;;;;;4.97;3.20;;;;;;;26.92;53.05;98147.06;5031173;28;20064;-58
2022/08/28 11:37:42;;;;;;;5.20;3.38;;;;;;;26.91;53.02;98142.81;5029939;28;20105;-59
2022/08/28 11:40:29;;;;;;;5.68;3.50;;;;;;;26.98;52.75;98140.69;5027051;28;20324;-62
2022/08/28 11:43:13;;;;;;;5.22;3.35;;;;;;;26.99;53.59;98140.41;5032414;28;20167;-59
2022/08/28 11:45:41;;;;;;;6.13;3.42;;;;;;;27.03;52.76;98141.50;5023961;28;20064;-58
2022/08/28 11:48:27;;;;;;;5.78;3.20;;;;;;;26.81;52.96;98125.69;5033355;28;20098;-59